sensor_id;sensor_type;location;lat;lon;timestamp;P1;durP1;ratioP1;P2;durP2;ratioP2
38805;SDS011;25635;51.146;17.162;2024-03-22T00:01:47;13.90;;;10.20;;
38805;SDS011;25635;51.146;17.162;2024-03-22T00:04:14;14.70;;;10.00;;
38805;SDS011;25635;51.146;17.162;2024-03-22T00:06:45;14.00;;;10.10;;
38805;SDS011;25635;51.146;17.162;2024-03-22T00:09:13;14.60;;;9.90;;
38805;SDS011;25635;51.146;17.162;2024-03-22T00:11:40;16.50;;;10.40;;
38805;SDS011;25635;51.146;17.162;2024-03-22T00:14:07;15.50;;;10.70;;
38805;SDS011;25635;51.146;17.162;2024-03-22T00:16:33;15.90;;;11.00;;
38805;SDS011;25635;51.146;17.162;2024-03-22T00:18:59;14.10;;;9.30;;
38805;SDS011;25635;51.146;17.162;2024-03-22T00:21:26;15.20;;;10.00;;
38805;SDS011;25635;51.146;17.162;2024-03-22T00:24:01;13.30;;;9.30;;
38805;SDS011;25635;51.146;17.162;2024-03-22T00:26:27;15.10;;;9.60;;
38805;SDS011;25635;51.146;17.162;2024-03-22T00:28:53;13.30;;;9.40;;
38805;SDS011;25635;51.146;17.162;2024-03-22T00:31:19;12.50;;;8.90;;
38805;SDS011;25635;51.146;17.162;2024-03-22T00:33:45;14.20;;;9.10;;
38805;SDS011;25635;51.146;17.162;2024-03-22T00:36:11;14.70;;;10.00;;
38805;SDS011;25635;51.146;17.162;2024-03-22T00:38:37;13.50;;;8.70;;
38805;SDS011;25635;51.146;17.162;2024-03-22T00:41:03;11.30;;;8.40;;
38805;SDS011;25635;51.146;17.162;2024-03-22T00:43:29;12.70;;;8.70;;
38805;SDS011;25635;51.146;17.162;2024-03-22T00:45:55;12.90;;;8.50;;
38805;SDS011;25635;51.146;17.162;2024-03-22T00:48:22;14.90;;;9.20;;
38805;SDS011;25635;51.146;17.162;2024-03-22T00:50:48;15.20;;;10.70;;
38805;SDS011;25635;51.146;17.162;2024-03-22T00:53:14;15.10;;;10.60;;
38805;SDS011;25635;51.146;17.162;2024-03-22T00:55:39;16.10;;;10.90;;
38805;SDS011;25635;51.146;17.162;2024-03-22T00:58:06;15.60;;;10.60;;
38805;SDS011;25635;51.146;17.162;2024-03-22T01:00:32;19.30;;;11.20;;
38805;SDS011;25635;51.146;17.162;2024-03-22T01:02:58;16.30;;;11.10;;
38805;SDS011;25635;51.146;17.162;2024-03-22T01:05:24;17.00;;;11.80;;
38805;SDS011;25635;51.146;17.162;2024-03-22T01:07:51;17.10;;;11.70;;
38805;SDS011;25635;51.146;17.162;2024-03-22T01:10:17;15.90;;;11.10;;
38805;SDS011;25635;51.146;17.162;2024-03-22T01:12:44;15.00;;;10.80;;
38805;SDS011;25635;51.146;17.162;2024-03-22T01:15:10;15.90;;;10.70;;
38805;SDS011;25635;51.146;17.162;2024-03-22T01:17:37;16.80;;;11.20;;
38805;SDS011;25635;51.146;17.162;2024-03-22T01:20:03;16.60;;;11.70;;
38805;SDS011;25635;51.146;17.162;2024-03-22T01:22:30;15.90;;;11.00;;
38805;SDS011;25635;51.146;17.162;2024-03-22T01:24:56;16.60;;;10.50;;
38805;SDS011;25635;51.146;17.162;2024-03-22T01:27:22;15.90;;;10.40;;
38805;SDS011;25635;51.146;17.162;2024-03-22T01:29:48;16.20;;;10.70;;
38805;SDS011;25635;51.146;17.162;2024-03-22T01:32:14;15.30;;;10.40;;
38805;SDS011;25635;51.146;17.162;2024-03-22T01:34:41;16.50;;;10.90;;
38805;SDS011;25635;51.146;17.162;2024-03-22T01:37:07;16.90;;;10.90;;
38805;SDS011;25635;51.146;17.162;2024-03-22T01:39:33;15.90;;;10.50;;
38805;SDS011;25635;51.146;17.162;2024-03-22T01:41:59;15.60;;;10.10;;
38805;SDS011;25635;51.146;17.162;2024-03-22T01:44:28;14.20;;;9.00;;
38805;SDS011;25635;51.146;17.162;2024-03-22T01:46:57;13.20;;;8.90;;
38805;SDS011;25635;51.146;17.162;2024-03-22T01:49:26;14.70;;;9.80;;
38805;SDS011;25635;51.146;17.162;2024-03-22T01:51:52;14.80;;;9.60;;
38805;SDS011;25635;51.146;17.162;2024-03-22T01:54:19;14.40;;;9.50;;
38805;SDS011;25635;51.146;17.162;2024-03-22T01:56:46;14.20;;;9.30;;
38805;SDS011;25635;51.146;17.162;2024-03-22T01:59:13;13.20;;;8.70;;
38805;SDS011;25635;51.146;17.162;2024-03-22T02:01:40;14.30;;;8.60;;
38805;SDS011;25635;51.146;17.162;2024-03-22T02:04:06;13.70;;;8.70;;
38805;SDS011;25635;51.146;17.162;2024-03-22T02:06:32;13.60;;;8.30;;
38805;SDS011;25635;51.146;17.162;2024-03-22T02:08:59;13.10;;;8.60;;
38805;SDS011;25635;51.146;17.162;2024-03-22T02:11:25;12.90;;;7.90;;
38805;SDS011;25635;51.146;17.162;2024-03-22T02:13:51;12.20;;;8.10;;
38805;SDS011;25635;51.146;17.162;2024-03-22T02:16:17;12.30;;;8.10;;
38805;SDS011;25635;51.146;17.162;2024-03-22T02:18:44;13.20;;;8.00;;
38805;SDS011;25635;51.146;17.162;2024-03-22T02:21:10;14.00;;;8.10;;
38805;SDS011;25635;51.146;17.162;2024-03-22T02:23:37;12.10;;;8.10;;
38805;SDS011;25635;51.146;17.162;2024-03-22T02:26:04;12.00;;;8.30;;
38805;SDS011;25635;51.146;17.162;2024-03-22T02:28:32;12.30;;;8.00;;
38805;SDS011;25635;51.146;17.162;2024-03-22T02:30:59;14.10;;;8.60;;
38805;SDS011;25635;51.146;17.162;2024-03-22T02:33:25;11.30;;;7.30;;
38805;SDS011;25635;51.146;17.162;2024-03-22T02:35:52;12.30;;;8.00;;
38805;SDS011;25635;51.146;17.162;2024-03-22T02:38:18;12.80;;;8.50;;
38805;SDS011;25635;51.146;17.162;2024-03-22T02:40:45;12.90;;;8.50;;
38805;SDS011;25635;51.146;17.162;2024-03-22T02:43:12;13.00;;;8.80;;
38805;SDS011;25635;51.146;17.162;2024-03-22T02:45:38;13.90;;;8.50;;
38805;SDS011;25635;51.146;17.162;2024-03-22T02:48:05;12.20;;;8.50;;
38805;SDS011;25635;51.146;17.162;2024-03-22T02:50:32;12.90;;;8.30;;
38805;SDS011;25635;51.146;17.162;2024-03-22T02:53:02;13.20;;;9.10;;
38805;SDS011;25635;51.146;17.162;2024-03-22T02:55:29;14.50;;;9.00;;
38805;SDS011;25635;51.146;17.162;2024-03-22T02:57:58;13.70;;;8.40;;
38805;SDS011;25635;51.146;17.162;2024-03-22T03:00:24;12.80;;;8.80;;
38805;SDS011;25635;51.146;17.162;2024-03-22T03:02:50;15.10;;;9.70;;
38805;SDS011;25635;51.146;17.162;2024-03-22T03:05:16;12.10;;;8.30;;
38805;SDS011;25635;51.146;17.162;2024-03-22T03:07:42;13.70;;;8.90;;
38805;SDS011;25635;51.146;17.162;2024-03-22T03:10:08;11.60;;;7.80;;
38805;SDS011;25635;51.146;17.162;2024-03-22T03:12:34;13.60;;;9.30;;
38805;SDS011;25635;51.146;17.162;2024-03-22T03:15:00;12.10;;;8.70;;
38805;SDS011;25635;51.146;17.162;2024-03-22T03:17:26;13.30;;;9.30;;
38805;SDS011;25635;51.146;17.162;2024-03-22T03:19:52;11.90;;;8.40;;
38805;SDS011;25635;51.146;17.162;2024-03-22T03:22:18;13.20;;;9.10;;
38805;SDS011;25635;51.146;17.162;2024-03-22T03:24:44;14.70;;;9.40;;
38805;SDS011;25635;51.146;17.162;2024-03-22T03:27:10;12.60;;;9.00;;
38805;SDS011;25635;51.146;17.162;2024-03-22T03:29:36;13.10;;;8.70;;
38805;SDS011;25635;51.146;17.162;2024-03-22T03:32:03;13.40;;;9.50;;
38805;SDS011;25635;51.146;17.162;2024-03-22T03:34:29;12.40;;;8.90;;
38805;SDS011;25635;51.146;17.162;2024-03-22T03:36:55;12.80;;;8.70;;
38805;SDS011;25635;51.146;17.162;2024-03-22T03:39:22;12.00;;;8.70;;
38805;SDS011;25635;51.146;17.162;2024-03-22T03:41:48;12.60;;;8.70;;
38805;SDS011;25635;51.146;17.162;2024-03-22T03:44:14;12.50;;;8.80;;
38805;SDS011;25635;51.146;17.162;2024-03-22T03:46:40;14.60;;;10.30;;
38805;SDS011;25635;51.146;17.162;2024-03-22T03:49:07;15.70;;;10.40;;
38805;SDS011;25635;51.146;17.162;2024-03-22T03:51:33;18.40;;;10.70;;
38805;SDS011;25635;51.146;17.162;2024-03-22T03:53:59;15.90;;;9.90;;
38805;SDS011;25635;51.146;17.162;2024-03-22T03:56:25;15.00;;;10.40;;
38805;SDS011;25635;51.146;17.162;2024-03-22T03:58:51;16.70;;;11.60;;
38805;SDS011;25635;51.146;17.162;2024-03-22T04:01:19;16.90;;;11.60;;
38805;SDS011;25635;51.146;17.162;2024-03-22T04:03:45;16.80;;;11.20;;
38805;SDS011;25635;51.146;17.162;2024-03-22T04:06:11;15.00;;;11.00;;
38805;SDS011;25635;51.146;17.162;2024-03-22T04:08:38;16.60;;;10.70;;
38805;SDS011;25635;51.146;17.162;2024-03-22T04:11:04;18.00;;;11.70;;
38805;SDS011;25635;51.146;17.162;2024-03-22T04:13:30;18.10;;;12.30;;
38805;SDS011;25635;51.146;17.162;2024-03-22T04:15:58;18.00;;;12.40;;
38805;SDS011;25635;51.146;17.162;2024-03-22T04:18:25;22.40;;;13.70;;
38805;SDS011;25635;51.146;17.162;2024-03-22T04:20:54;22.30;;;13.50;;
38805;SDS011;25635;51.146;17.162;2024-03-22T04:23:22;24.80;;;17.00;;
38805;SDS011;25635;51.146;17.162;2024-03-22T04:25:56;23.60;;;14.70;;
38805;SDS011;25635;51.146;17.162;2024-03-22T04:28:25;22.90;;;14.20;;
38805;SDS011;25635;51.146;17.162;2024-03-22T04:31:00;23.10;;;13.90;;
38805;SDS011;25635;51.146;17.162;2024-03-22T04:33:28;23.00;;;14.20;;
38805;SDS011;25635;51.146;17.162;2024-03-22T04:35:55;20.80;;;12.60;;
38805;SDS011;25635;51.146;17.162;2024-03-22T04:38:22;18.10;;;12.30;;
38805;SDS011;25635;51.146;17.162;2024-03-22T04:40:49;18.30;;;12.50;;
38805;SDS011;25635;51.146;17.162;2024-03-22T04:43:15;18.50;;;12.20;;
38805;SDS011;25635;51.146;17.162;2024-03-22T04:45:42;18.40;;;11.70;;
38805;SDS011;25635;51.146;17.162;2024-03-22T04:48:09;17.20;;;11.70;;
38805;SDS011;25635;51.146;17.162;2024-03-22T04:50:35;15.20;;;10.10;;
38805;SDS011;25635;51.146;17.162;2024-03-22T04:53:02;16.00;;;10.70;;
38805;SDS011;25635;51.146;17.162;2024-03-22T04:55:31;15.80;;;10.00;;
38805;SDS011;25635;51.146;17.162;2024-03-22T04:58:01;14.30;;;9.90;;
38805;SDS011;25635;51.146;17.162;2024-03-22T05:00:27;15.80;;;10.00;;
38805;SDS011;25635;51.146;17.162;2024-03-22T05:02:54;15.90;;;10.80;;
38805;SDS011;25635;51.146;17.162;2024-03-22T05:05:20;17.00;;;11.40;;
38805;SDS011;25635;51.146;17.162;2024-03-22T05:07:47;14.50;;;10.10;;
38805;SDS011;25635;51.146;17.162;2024-03-22T05:10:13;13.20;;;8.90;;
38805;SDS011;25635;51.146;17.162;2024-03-22T05:12:39;14.20;;;9.20;;
38805;SDS011;25635;51.146;17.162;2024-03-22T05:15:05;13.10;;;8.70;;
38805;SDS011;25635;51.146;17.162;2024-03-22T05:17:32;13.00;;;9.20;;
38805;SDS011;25635;51.146;17.162;2024-03-22T05:19:59;13.70;;;9.00;;
38805;SDS011;25635;51.146;17.162;2024-03-22T05:22:25;14.80;;;8.80;;
38805;SDS011;25635;51.146;17.162;2024-03-22T05:24:54;12.60;;;8.40;;
38805;SDS011;25635;51.146;17.162;2024-03-22T05:27:25;14.30;;;9.00;;
38805;SDS011;25635;51.146;17.162;2024-03-22T05:29:51;14.50;;;9.30;;
38805;SDS011;25635;51.146;17.162;2024-03-22T05:32:18;13.90;;;9.10;;
38805;SDS011;25635;51.146;17.162;2024-03-22T05:34:44;14.90;;;9.30;;
38805;SDS011;25635;51.146;17.162;2024-03-22T05:37:10;13.00;;;8.60;;
38805;SDS011;25635;51.146;17.162;2024-03-22T05:39:36;14.40;;;9.20;;
38805;SDS011;25635;51.146;17.162;2024-03-22T05:42:03;14.80;;;8.60;;
38805;SDS011;25635;51.146;17.162;2024-03-22T05:44:29;13.50;;;8.80;;
38805;SDS011;25635;51.146;17.162;2024-03-22T05:46:57;14.00;;;8.50;;
38805;SDS011;25635;51.146;17.162;2024-03-22T05:49:23;13.50;;;8.70;;
38805;SDS011;25635;51.146;17.162;2024-03-22T05:51:49;12.80;;;8.30;;
38805;SDS011;25635;51.146;17.162;2024-03-22T05:54:15;15.00;;;9.50;;
38805;SDS011;25635;51.146;17.162;2024-03-22T05:56:41;13.30;;;8.10;;
38805;SDS011;25635;51.146;17.162;2024-03-22T05:59:07;11.40;;;7.40;;
38805;SDS011;25635;51.146;17.162;2024-03-22T06:01:39;12.70;;;8.00;;
38805;SDS011;25635;51.146;17.162;2024-03-22T06:04:05;13.10;;;8.60;;
38805;SDS011;25635;51.146;17.162;2024-03-22T06:06:32;12.70;;;8.30;;
38805;SDS011;25635;51.146;17.162;2024-03-22T06:09:00;14.40;;;8.80;;
38805;SDS011;25635;51.146;17.162;2024-03-22T06:11:29;13.00;;;8.30;;
38805;SDS011;25635;51.146;17.162;2024-03-22T06:13:56;14.10;;;8.80;;
38805;SDS011;25635;51.146;17.162;2024-03-22T06:16:22;13.20;;;8.80;;
38805;SDS011;25635;51.146;17.162;2024-03-22T06:18:48;14.10;;;9.40;;
38805;SDS011;25635;51.146;17.162;2024-03-22T06:21:14;13.40;;;8.90;;
38805;SDS011;25635;51.146;17.162;2024-03-22T06:23:40;14.10;;;9.50;;
38805;SDS011;25635;51.146;17.162;2024-03-22T06:26:09;16.00;;;10.00;;
38805;SDS011;25635;51.146;17.162;2024-03-22T06:28:35;16.30;;;10.20;;
38805;SDS011;25635;51.146;17.162;2024-03-22T06:31:01;14.20;;;9.80;;
38805;SDS011;25635;51.146;17.162;2024-03-22T06:33:29;15.10;;;9.90;;
38805;SDS011;25635;51.146;17.162;2024-03-22T06:35:55;14.00;;;9.60;;
38805;SDS011;25635;51.146;17.162;2024-03-22T06:38:21;16.70;;;11.20;;
38805;SDS011;25635;51.146;17.162;2024-03-22T06:40:47;16.90;;;11.40;;
38805;SDS011;25635;51.146;17.162;2024-03-22T06:43:13;16.80;;;11.40;;
38805;SDS011;25635;51.146;17.162;2024-03-22T06:45:39;16.60;;;10.80;;
38805;SDS011;25635;51.146;17.162;2024-03-22T06:48:05;16.50;;;11.10;;
38805;SDS011;25635;51.146;17.162;2024-03-22T06:50:31;18.20;;;12.30;;
38805;SDS011;25635;51.146;17.162;2024-03-22T06:52:57;19.40;;;12.80;;
38805;SDS011;25635;51.146;17.162;2024-03-22T06:55:24;18.40;;;12.00;;
38805;SDS011;25635;51.146;17.162;2024-03-22T06:57:56;20.10;;;13.20;;
38805;SDS011;25635;51.146;17.162;2024-03-22T07:00:24;18.20;;;12.10;;
38805;SDS011;25635;51.146;17.162;2024-03-22T07:02:50;16.80;;;11.80;;
38805;SDS011;25635;51.146;17.162;2024-03-22T07:05:18;17.90;;;12.60;;
38805;SDS011;25635;51.146;17.162;2024-03-22T07:07:48;18.10;;;12.50;;
38805;SDS011;25635;51.146;17.162;2024-03-22T07:10:18;20.70;;;13.60;;
38805;SDS011;25635;51.146;17.162;2024-03-22T07:12:47;19.30;;;12.90;;
38805;SDS011;25635;51.146;17.162;2024-03-22T07:15:13;18.20;;;12.60;;
38805;SDS011;25635;51.146;17.162;2024-03-22T07:17:39;19.90;;;13.10;;
38805;SDS011;25635;51.146;17.162;2024-03-22T07:20:05;19.60;;;13.50;;
38805;SDS011;25635;51.146;17.162;2024-03-22T07:22:35;18.90;;;12.80;;
38805;SDS011;25635;51.146;17.162;2024-03-22T07:25:00;20.90;;;14.00;;
38805;SDS011;25635;51.146;17.162;2024-03-22T07:27:27;20.80;;;14.00;;
38805;SDS011;25635;51.146;17.162;2024-03-22T07:29:58;21.00;;;12.70;;
38805;SDS011;25635;51.146;17.162;2024-03-22T07:32:24;19.80;;;13.30;;
38805;SDS011;25635;51.146;17.162;2024-03-22T07:34:56;20.30;;;13.50;;
38805;SDS011;25635;51.146;17.162;2024-03-22T07:37:22;23.40;;;14.60;;
38805;SDS011;25635;51.146;17.162;2024-03-22T07:39:48;23.40;;;14.90;;
38805;SDS011;25635;51.146;17.162;2024-03-22T07:42:19;21.00;;;14.60;;
38805;SDS011;25635;51.146;17.162;2024-03-22T07:44:51;21.70;;;13.50;;
38805;SDS011;25635;51.146;17.162;2024-03-22T07:47:17;23.30;;;14.60;;
38805;SDS011;25635;51.146;17.162;2024-03-22T07:49:45;20.50;;;13.90;;
38805;SDS011;25635;51.146;17.162;2024-03-22T07:52:11;20.10;;;13.60;;
38805;SDS011;25635;51.146;17.162;2024-03-22T07:54:39;21.10;;;13.40;;
38805;SDS011;25635;51.146;17.162;2024-03-22T07:57:05;21.10;;;14.10;;
38805;SDS011;25635;51.146;17.162;2024-03-22T07:59:32;21.50;;;13.90;;
38805;SDS011;25635;51.146;17.162;2024-03-22T08:01:57;22.80;;;14.60;;
38805;SDS011;25635;51.146;17.162;2024-03-22T08:04:24;21.90;;;13.80;;
38805;SDS011;25635;51.146;17.162;2024-03-22T08:06:52;20.40;;;13.50;;
38805;SDS011;25635;51.146;17.162;2024-03-22T08:09:18;23.10;;;13.40;;
38805;SDS011;25635;51.146;17.162;2024-03-22T08:11:45;21.90;;;14.00;;
38805;SDS011;25635;51.146;17.162;2024-03-22T08:14:11;21.60;;;13.90;;
38805;SDS011;25635;51.146;17.162;2024-03-22T08:16:37;20.30;;;13.50;;
38805;SDS011;25635;51.146;17.162;2024-03-22T08:19:04;19.30;;;12.10;;
38805;SDS011;25635;51.146;17.162;2024-03-22T08:21:30;17.70;;;11.50;;
38805;SDS011;25635;51.146;17.162;2024-03-22T08:23:56;18.00;;;11.90;;
38805;SDS011;25635;51.146;17.162;2024-03-22T08:26:22;19.50;;;12.30;;
38805;SDS011;25635;51.146;17.162;2024-03-22T08:28:48;21.10;;;13.10;;
38805;SDS011;25635;51.146;17.162;2024-03-22T08:31:14;21.10;;;13.40;;
38805;SDS011;25635;51.146;17.162;2024-03-22T08:33:40;20.80;;;13.70;;
38805;SDS011;25635;51.146;17.162;2024-03-22T08:36:06;20.50;;;13.60;;
38805;SDS011;25635;51.146;17.162;2024-03-22T08:38:32;20.40;;;13.10;;
38805;SDS011;25635;51.146;17.162;2024-03-22T08:40:59;20.10;;;13.20;;
38805;SDS011;25635;51.146;17.162;2024-03-22T08:43:25;17.70;;;11.90;;
38805;SDS011;25635;51.146;17.162;2024-03-22T08:45:53;20.20;;;13.20;;
38805;SDS011;25635;51.146;17.162;2024-03-22T08:48:19;21.30;;;12.80;;
38805;SDS011;25635;51.146;17.162;2024-03-22T08:50:45;20.30;;;13.10;;
38805;SDS011;25635;51.146;17.162;2024-03-22T08:53:11;19.60;;;12.80;;
38805;SDS011;25635;51.146;17.162;2024-03-22T08:55:37;21.10;;;13.60;;
38805;SDS011;25635;51.146;17.162;2024-03-22T08:58:04;21.90;;;13.90;;
38805;SDS011;25635;51.146;17.162;2024-03-22T09:00:30;21.30;;;13.40;;
38805;SDS011;25635;51.146;17.162;2024-03-22T09:02:56;18.90;;;12.90;;
38805;SDS011;25635;51.146;17.162;2024-03-22T09:05:24;19.70;;;12.50;;
38805;SDS011;25635;51.146;17.162;2024-03-22T09:07:50;20.90;;;12.90;;
38805;SDS011;25635;51.146;17.162;2024-03-22T09:10:18;20.80;;;13.20;;
38805;SDS011;25635;51.146;17.162;2024-03-22T09:12:44;19.40;;;13.50;;
38805;SDS011;25635;51.146;17.162;2024-03-22T09:15:10;21.40;;;14.00;;
38805;SDS011;25635;51.146;17.162;2024-03-22T09:17:37;19.70;;;13.40;;
38805;SDS011;25635;51.146;17.162;2024-03-22T09:20:07;20.20;;;14.00;;
38805;SDS011;25635;51.146;17.162;2024-03-22T09:22:33;20.20;;;13.70;;
38805;SDS011;25635;51.146;17.162;2024-03-22T09:24:59;17.50;;;12.80;;
38805;SDS011;25635;51.146;17.162;2024-03-22T09:27:25;19.40;;;13.50;;
38805;SDS011;25635;51.146;17.162;2024-03-22T09:29:51;19.40;;;14.10;;
38805;SDS011;25635;51.146;17.162;2024-03-22T09:32:19;19.70;;;14.00;;
38805;SDS011;25635;51.146;17.162;2024-03-22T09:34:48;21.50;;;13.40;;
38805;SDS011;25635;51.146;17.162;2024-03-22T09:37:15;18.50;;;12.40;;
38805;SDS011;25635;51.146;17.162;2024-03-22T09:39:44;19.30;;;13.00;;
38805;SDS011;25635;51.146;17.162;2024-03-22T09:42:12;19.20;;;13.30;;
38805;SDS011;25635;51.146;17.162;2024-03-22T09:44:44;19.00;;;14.00;;
38805;SDS011;25635;51.146;17.162;2024-03-22T09:47:14;19.80;;;14.30;;
38805;SDS011;25635;51.146;17.162;2024-03-22T09:49:44;18.60;;;13.10;;
38805;SDS011;25635;51.146;17.162;2024-03-22T09:52:12;19.70;;;13.80;;
38805;SDS011;25635;51.146;17.162;2024-03-22T09:54:43;20.90;;;13.00;;
38805;SDS011;25635;51.146;17.162;2024-03-22T09:57:15;16.80;;;12.40;;
38805;SDS011;25635;51.146;17.162;2024-03-22T09:59:42;17.10;;;12.40;;
38805;SDS011;25635;51.146;17.162;2024-03-22T10:02:10;21.50;;;13.80;;
38805;SDS011;25635;51.146;17.162;2024-03-22T10:04:41;18.60;;;12.70;;
38805;SDS011;25635;51.146;17.162;2024-03-22T10:07:07;18.00;;;12.90;;
38805;SDS011;25635;51.146;17.162;2024-03-22T10:09:36;17.20;;;11.90;;
38805;SDS011;25635;51.146;17.162;2024-03-22T10:12:03;18.80;;;13.20;;
38805;SDS011;25635;51.146;17.162;2024-03-22T10:14:30;16.80;;;11.80;;
38805;SDS011;25635;51.146;17.162;2024-03-22T10:16:56;15.80;;;10.90;;
38805;SDS011;25635;51.146;17.162;2024-03-22T10:19:25;15.60;;;10.80;;
38805;SDS011;25635;51.146;17.162;2024-03-22T10:22:00;17.10;;;11.20;;
38805;SDS011;25635;51.146;17.162;2024-03-22T10:24:30;13.80;;;10.10;;
38805;SDS011;25635;51.146;17.162;2024-03-22T10:26:57;17.30;;;10.70;;
38805;SDS011;25635;51.146;17.162;2024-03-22T10:29:24;17.60;;;12.60;;
38805;SDS011;25635;51.146;17.162;2024-03-22T10:31:50;15.40;;;10.90;;
38805;SDS011;25635;51.146;17.162;2024-03-22T10:34:18;15.80;;;10.70;;
38805;SDS011;25635;51.146;17.162;2024-03-22T10:36:46;16.10;;;10.90;;
38805;SDS011;25635;51.146;17.162;2024-03-22T10:39:13;16.00;;;10.30;;
38805;SDS011;25635;51.146;17.162;2024-03-22T10:41:45;16.10;;;10.70;;
38805;SDS011;25635;51.146;17.162;2024-03-22T10:44:12;17.10;;;10.90;;
38805;SDS011;25635;51.146;17.162;2024-03-22T10:46:38;16.80;;;11.40;;
38805;SDS011;25635;51.146;17.162;2024-03-22T10:49:11;17.20;;;10.70;;
38805;SDS011;25635;51.146;17.162;2024-03-22T10:51:46;17.70;;;11.30;;
38805;SDS011;25635;51.146;17.162;2024-03-22T10:54:17;17.50;;;11.30;;
38805;SDS011;25635;51.146;17.162;2024-03-22T10:56:46;21.00;;;12.10;;
38805;SDS011;25635;51.146;17.162;2024-03-22T10:59:14;18.10;;;11.50;;
38805;SDS011;25635;51.146;17.162;2024-03-22T11:01:44;17.00;;;10.30;;
38805;SDS011;25635;51.146;17.162;2024-03-22T11:04:11;16.10;;;11.10;;
38805;SDS011;25635;51.146;17.162;2024-03-22T11:06:38;16.80;;;11.40;;
38805;SDS011;25635;51.146;17.162;2024-03-22T11:09:04;16.20;;;10.00;;
38805;SDS011;25635;51.146;17.162;2024-03-22T11:11:30;15.20;;;10.40;;
38805;SDS011;25635;51.146;17.162;2024-03-22T11:13:58;16.00;;;11.00;;
38805;SDS011;25635;51.146;17.162;2024-03-22T11:16:25;15.70;;;10.70;;
38805;SDS011;25635;51.146;17.162;2024-03-22T11:18:51;16.50;;;9.80;;
38805;SDS011;25635;51.146;17.162;2024-03-22T11:21:17;14.90;;;9.50;;
38805;SDS011;25635;51.146;17.162;2024-03-22T11:23:47;15.30;;;10.40;;
38805;SDS011;25635;51.146;17.162;2024-03-22T11:26:13;14.60;;;9.50;;
38805;SDS011;25635;51.146;17.162;2024-03-22T11:28:39;14.90;;;10.00;;
38805;SDS011;25635;51.146;17.162;2024-03-22T11:31:05;13.50;;;9.40;;
38805;SDS011;25635;51.146;17.162;2024-03-22T11:33:32;14.90;;;9.80;;
38805;SDS011;25635;51.146;17.162;2024-03-22T11:36:01;13.90;;;10.00;;
38805;SDS011;25635;51.146;17.162;2024-03-22T11:38:31;15.10;;;9.70;;
38805;SDS011;25635;51.146;17.162;2024-03-22T11:40:57;13.80;;;9.40;;
38805;SDS011;25635;51.146;17.162;2024-03-22T11:43:28;14.20;;;9.20;;
38805;SDS011;25635;51.146;17.162;2024-03-22T11:45:55;16.00;;;9.50;;
38805;SDS011;25635;51.146;17.162;2024-03-22T11:48:22;13.10;;;9.50;;
38805;SDS011;25635;51.146;17.162;2024-03-22T11:50:49;14.80;;;9.40;;
38805;SDS011;25635;51.146;17.162;2024-03-22T11:53:16;13.40;;;9.20;;
38805;SDS011;25635;51.146;17.162;2024-03-22T11:55:43;15.60;;;9.40;;
38805;SDS011;25635;51.146;17.162;2024-03-22T11:58:09;15.00;;;9.10;;
38805;SDS011;25635;51.146;17.162;2024-03-22T12:00:36;15.90;;;9.00;;
38805;SDS011;25635;51.146;17.162;2024-03-22T12:03:03;13.30;;;8.10;;
38805;SDS011;25635;51.146;17.162;2024-03-22T12:05:31;13.10;;;8.40;;
38805;SDS011;25635;51.146;17.162;2024-03-22T12:07:58;12.90;;;8.10;;
38805;SDS011;25635;51.146;17.162;2024-03-22T12:10:24;13.00;;;8.30;;
38805;SDS011;25635;51.146;17.162;2024-03-22T12:12:50;11.80;;;8.40;;
38805;SDS011;25635;51.146;17.162;2024-03-22T12:15:16;14.00;;;8.30;;
38805;SDS011;25635;51.146;17.162;2024-03-22T12:17:42;12.50;;;8.30;;
38805;SDS011;25635;51.146;17.162;2024-03-22T12:20:09;11.20;;;7.50;;
38805;SDS011;25635;51.146;17.162;2024-03-22T12:22:35;14.30;;;7.70;;
38805;SDS011;25635;51.146;17.162;2024-03-22T12:25:01;11.50;;;7.30;;
38805;SDS011;25635;51.146;17.162;2024-03-22T12:27:30;12.00;;;7.00;;
38805;SDS011;25635;51.146;17.162;2024-03-22T12:29:56;13.40;;;7.10;;
38805;SDS011;25635;51.146;17.162;2024-03-22T12:32:22;10.90;;;6.80;;
38805;SDS011;25635;51.146;17.162;2024-03-22T12:34:48;12.20;;;7.00;;
38805;SDS011;25635;51.146;17.162;2024-03-22T12:37:14;13.50;;;8.00;;
38805;SDS011;25635;51.146;17.162;2024-03-22T12:39:40;12.40;;;8.80;;
38805;SDS011;25635;51.146;17.162;2024-03-22T12:42:06;14.80;;;9.50;;
38805;SDS011;25635;51.146;17.162;2024-03-22T12:44:33;16.10;;;8.70;;
38805;SDS011;25635;51.146;17.162;2024-03-22T12:46:59;13.30;;;9.60;;
38805;SDS011;25635;51.146;17.162;2024-03-22T12:49:25;13.00;;;9.00;;
38805;SDS011;25635;51.146;17.162;2024-03-22T12:51:51;13.10;;;9.20;;
38805;SDS011;25635;51.146;17.162;2024-03-22T12:54:17;14.90;;;9.30;;
38805;SDS011;25635;51.146;17.162;2024-03-22T12:56:48;11.20;;;7.70;;
38805;SDS011;25635;51.146;17.162;2024-03-22T12:59:15;13.60;;;8.00;;
38805;SDS011;25635;51.146;17.162;2024-03-22T13:01:41;10.90;;;6.70;;
38805;SDS011;25635;51.146;17.162;2024-03-22T13:04:07;12.90;;;7.50;;
38805;SDS011;25635;51.146;17.162;2024-03-22T13:06:36;11.50;;;8.00;;
38805;SDS011;25635;51.146;17.162;2024-03-22T13:12:26;12.70;;;7.30;;
38805;SDS011;25635;51.146;17.162;2024-03-22T13:14:53;12.10;;;7.70;;
38805;SDS011;25635;51.146;17.162;2024-03-22T13:17:19;11.20;;;7.30;;
38805;SDS011;25635;51.146;17.162;2024-03-22T13:19:46;11.20;;;7.40;;
38805;SDS011;25635;51.146;17.162;2024-03-22T13:22:13;12.70;;;7.60;;
38805;SDS011;25635;51.146;17.162;2024-03-22T13:24:44;11.70;;;8.20;;
38805;SDS011;25635;51.146;17.162;2024-03-22T13:27:12;14.00;;;9.00;;
38805;SDS011;25635;51.146;17.162;2024-03-22T13:29:43;12.40;;;8.30;;
38805;SDS011;25635;51.146;17.162;2024-03-22T13:32:09;11.70;;;7.30;;
38805;SDS011;25635;51.146;17.162;2024-03-22T13:34:41;11.40;;;7.50;;
38805;SDS011;25635;51.146;17.162;2024-03-22T13:37:08;13.40;;;6.60;;
38805;SDS011;25635;51.146;17.162;2024-03-22T13:39:34;9.70;;;6.60;;
38805;SDS011;25635;51.146;17.162;2024-03-22T13:42:01;11.10;;;6.50;;
38805;SDS011;25635;51.146;17.162;2024-03-22T13:44:27;11.30;;;6.30;;
38805;SDS011;25635;51.146;17.162;2024-03-22T13:46:54;11.20;;;6.20;;
38805;SDS011;25635;51.146;17.162;2024-03-22T13:49:20;7.90;;;5.20;;
38805;SDS011;25635;51.146;17.162;2024-03-22T13:51:47;9.20;;;5.80;;
38805;SDS011;25635;51.146;17.162;2024-03-22T13:54:13;9.20;;;5.30;;
38805;SDS011;25635;51.146;17.162;2024-03-22T13:56:58;9.10;;;5.20;;
38805;SDS011;25635;51.146;17.162;2024-03-22T14:00:00;11.90;;;6.00;;
38805;SDS011;25635;51.146;17.162;2024-03-22T14:02:32;10.00;;;5.40;;
38805;SDS011;25635;51.146;17.162;2024-03-22T14:04:58;8.50;;;4.80;;
38805;SDS011;25635;51.146;17.162;2024-03-22T14:07:24;8.90;;;5.20;;
38805;SDS011;25635;51.146;17.162;2024-03-22T14:09:51;10.40;;;5.00;;
38805;SDS011;25635;51.146;17.162;2024-03-22T14:12:17;10.20;;;5.40;;
38805;SDS011;25635;51.146;17.162;2024-03-22T14:14:43;16.40;;;11.50;;
38805;SDS011;25635;51.146;17.162;2024-03-22T14:17:09;10.30;;;6.90;;
38805;SDS011;25635;51.146;17.162;2024-03-22T14:19:35;15.90;;;10.90;;